createdAt,value
2018-08-23T00:01:19.129Z,4.17
2018-08-23T00:03:47.301Z,3.73
2018-08-23T00:06:15.352Z,4.63
2018-08-23T00:08:48.592Z,4.30
2018-08-23T00:11:21.327Z,3.10
2018-08-23T00:13:50.519Z,3.73
2018-08-23T00:16:25.216Z,3.20
2018-08-23T00:18:53.664Z,4.13
2018-08-23T00:21:26.986Z,4.00
2018-08-23T00:24:14.027Z,3.50
2018-08-23T00:26:50.227Z,3.63
2018-08-23T00:29:22.598Z,4.23
2018-08-23T00:31:52.431Z,3.47
2018-08-23T00:34:21.759Z,3.80
2018-08-23T00:36:49.961Z,3.37
2018-08-23T00:39:18.220Z,3.20
2018-08-23T00:41:52.911Z,3.17
2018-08-23T00:44:26.011Z,4.20
2018-08-23T00:46:54.655Z,3.70
2018-08-23T00:49:26.076Z,3.37
2018-08-23T00:51:54.238Z,3.30
2018-08-23T00:54:22.302Z,3.80
2018-08-23T00:56:50.890Z,3.20
2018-08-23T00:59:19.007Z,3.60
2018-08-23T01:01:59.924Z,4.10
2018-08-23T01:04:29.277Z,3.60
2018-08-23T01:06:57.524Z,3.80
2018-08-23T01:09:25.766Z,3.50
2018-08-23T01:11:53.873Z,3.27
2018-08-23T01:14:21.962Z,4.20
2018-08-23T01:17:04.246Z,4.17
2018-08-23T01:19:39.417Z,3.60
2018-08-23T01:22:08.064Z,4.50
2018-08-23T01:24:36.713Z,3.90
2018-08-23T01:27:04.826Z,4.17
2018-08-23T01:29:32.950Z,4.40
2018-08-23T01:32:10.405Z,4.50
2018-08-23T01:34:38.536Z,4.03
2018-08-23T01:37:06.702Z,3.70
2018-08-23T01:39:35.014Z,4.17
2018-08-23T01:42:03.263Z,4.20
2018-08-23T01:44:37.880Z,4.50
2018-08-23T01:47:06.192Z,4.40
2018-08-23T01:49:34.400Z,4.00
2018-08-23T01:52:03.401Z,5.50
2018-08-23T01:54:31.483Z,4.57
2018-08-23T01:57:00.282Z,4.10
2018-08-23T01:59:28.408Z,4.40
2018-08-23T02:01:58.614Z,4.10
2018-08-23T02:04:26.774Z,4.50
2018-08-23T02:06:55.044Z,4.10
2018-08-23T02:09:23.458Z,3.33
2018-08-23T02:11:51.747Z,3.83
2018-08-23T02:14:20.336Z,3.80
2018-08-23T02:16:52.512Z,3.43
2018-08-23T02:19:21.493Z,3.60
2018-08-23T02:21:51.309Z,3.20
2018-08-23T02:24:23.682Z,3.30
2018-08-23T02:26:51.753Z,3.40
2018-08-23T02:29:29.981Z,3.80
2018-08-23T02:31:58.241Z,3.47
2018-08-23T02:34:30.596Z,3.20
2018-08-23T02:36:58.688Z,3.53
2018-08-23T02:39:26.792Z,3.27
2018-08-23T02:41:54.915Z,2.77
2018-08-23T02:44:23.154Z,3.33
2018-08-23T02:46:51.358Z,2.60
2018-08-23T02:49:19.690Z,2.63
2018-08-23T02:51:50.676Z,2.70
2018-08-23T02:54:18.870Z,2.90
2018-08-23T02:56:52.696Z,3.03
2018-08-23T02:59:20.807Z,2.93
2018-08-23T03:01:49.796Z,2.90
2018-08-23T03:04:22.165Z,2.50
2018-08-23T03:06:57.098Z,2.93
2018-08-23T03:09:31.942Z,2.60
2018-08-23T03:12:01.338Z,2.80
2018-08-23T03:14:31.139Z,2.60
2018-08-23T03:17:36.357Z,2.63
2018-08-23T03:20:14.640Z,3.10
2018-08-23T03:22:43.936Z,2.90
2018-08-23T03:25:14.264Z,2.90
2018-08-23T03:27:42.380Z,3.20
2018-08-23T03:30:12.005Z,2.63
2018-08-23T03:32:40.217Z,2.50
2018-08-23T03:35:08.394Z,2.83
2018-08-23T03:37:36.662Z,3.40
2018-08-23T03:40:05.273Z,3.10
2018-08-23T03:42:33.385Z,2.80
2018-08-23T03:45:01.712Z,3.07
2018-08-23T03:47:38.020Z,2.87
2018-08-23T03:50:06.999Z,2.73
2018-08-23T03:52:37.567Z,2.47
2018-08-23T03:55:08.260Z,2.50
2018-08-23T03:57:41.796Z,2.37
2018-08-23T04:00:10.009Z,2.80
2018-08-23T04:02:38.206Z,3.30
2018-08-23T04:05:12.988Z,3.30
2018-08-23T04:07:42.094Z,2.60
2018-08-23T04:10:10.234Z,3.33
2018-08-23T04:12:40.804Z,2.57
2018-08-23T04:15:20.308Z,2.93
2018-08-23T04:17:49.034Z,3.23
2018-08-23T04:20:17.410Z,3.00
2018-08-23T04:22:45.522Z,3.60
2018-08-23T04:25:13.918Z,2.73
2018-08-23T04:27:42.196Z,2.73
2018-08-23T04:30:10.625Z,2.90
2018-08-23T04:32:43.844Z,2.63
2018-08-23T04:35:15.054Z,2.97
2018-08-23T04:37:44.297Z,2.97
2018-08-23T04:40:15.262Z,3.30
2018-08-23T04:42:45.746Z,3.00
2018-08-23T04:45:19.259Z,2.93
2018-08-23T04:47:54.509Z,3.03
2018-08-23T04:50:23.908Z,2.87
2018-08-23T04:52:51.986Z,3.30
2018-08-23T04:55:21.540Z,3.60
2018-08-23T04:57:49.664Z,2.70
2018-08-23T05:00:17.825Z,3.17
2018-08-23T05:02:45.910Z,3.50
2018-08-23T05:05:14.322Z,3.10
2018-08-23T05:07:42.474Z,3.43
2018-08-23T05:10:10.842Z,2.70
2018-08-23T05:12:40.052Z,2.97
2018-08-23T05:15:09.826Z,2.80
2018-08-23T05:17:37.957Z,2.77
2018-08-23T05:20:06.314Z,3.77
2018-08-23T05:22:34.466Z,3.07
2018-08-23T05:25:11.038Z,2.70
2018-08-23T05:27:56.372Z,3.10
2018-08-23T05:30:26.643Z,3.60
2018-08-23T05:32:57.438Z,2.90
2018-08-23T05:35:25.546Z,3.00
2018-08-23T05:37:53.744Z,3.30
2018-08-23T05:40:21.872Z,3.53
2018-08-23T05:42:53.340Z,2.87
2018-08-23T05:45:28.174Z,3.90
2018-08-23T05:47:56.282Z,3.00
2018-08-23T05:50:30.788Z,2.80
2018-08-23T05:52:58.952Z,2.97
2018-08-23T05:55:27.094Z,3.43
2018-08-23T05:57:55.214Z,3.80
2018-08-23T06:00:23.382Z,3.20
2018-08-23T06:02:52.475Z,3.60
2018-08-23T06:05:20.655Z,3.40
2018-08-23T06:07:48.826Z,3.80
2018-08-23T06:10:16.958Z,3.80
2018-08-23T06:12:45.077Z,3.60
2018-08-23T06:15:13.186Z,3.67
2018-08-23T06:17:41.436Z,3.40
2018-08-23T06:20:09.719Z,3.50
2018-08-23T06:22:37.760Z,4.40
2018-08-23T06:25:07.408Z,3.13
2018-08-23T06:27:35.600Z,3.47
2018-08-23T06:30:03.994Z,3.80
2018-08-23T06:32:32.149Z,3.57
2018-08-23T06:35:01.477Z,4.27
2018-08-23T06:37:29.888Z,3.90
2018-08-23T06:39:58.069Z,3.80
2018-08-23T06:42:43.484Z,3.60
2018-08-23T06:45:12.090Z,4.30
2018-08-23T06:47:41.888Z,3.73
2018-08-23T06:50:10.823Z,3.43
2018-08-23T06:52:44.573Z,3.03
2018-08-23T06:55:15.360Z,3.60
2018-08-23T06:57:49.384Z,4.40
2018-08-23T07:00:23.400Z,3.90
2018-08-23T07:02:51.527Z,4.97
2018-08-23T07:05:20.279Z,3.73
2018-08-23T07:07:49.186Z,3.83
2018-08-23T07:10:17.333Z,3.70
2018-08-23T07:12:46.357Z,4.03
2018-08-23T07:15:14.493Z,4.77
2018-08-23T07:17:43.428Z,3.70
2018-08-23T07:20:12.287Z,3.47
2018-08-23T07:22:40.590Z,4.00
2018-08-23T07:25:13.500Z,3.90
2018-08-23T07:27:42.733Z,4.20
2018-08-23T07:30:14.498Z,4.40
2018-08-23T07:32:43.732Z,4.10
2018-08-23T07:35:13.202Z,3.93
2018-08-23T07:37:43.424Z,4.00
2018-08-23T07:40:13.626Z,4.00
2018-08-23T07:42:42.939Z,4.93
2018-08-23T07:45:11.575Z,4.27
2018-08-23T07:47:41.368Z,4.20
2018-08-23T07:50:09.590Z,4.10
2018-08-23T07:52:38.479Z,4.60
2018-08-23T07:55:07.386Z,5.03
2018-08-23T07:57:37.484Z,4.97
2018-08-23T08:00:36.138Z,4.40
2018-08-23T08:03:04.353Z,3.90
2018-08-23T08:05:35.415Z,4.47
2018-08-23T08:08:03.792Z,4.07
2018-08-23T08:10:36.529Z,4.10
2018-08-23T08:13:04.757Z,3.97
2018-08-23T08:15:33.141Z,3.10
2018-08-23T08:18:07.450Z,3.70
2018-08-23T08:20:35.575Z,3.63
2018-08-23T08:23:03.703Z,4.50
2018-08-23T08:25:32.645Z,3.27
2018-08-23T08:28:01.134Z,3.00
2018-08-23T08:30:40.293Z,3.00
2018-08-23T08:33:11.350Z,2.80
2018-08-23T08:35:42.098Z,3.07
2018-08-23T08:38:10.546Z,3.50
2018-08-23T08:40:38.700Z,3.63
2018-08-23T08:43:07.080Z,3.77
2018-08-23T08:45:35.248Z,3.27
2018-08-23T08:48:12.034Z,3.27
2018-08-23T08:50:45.837Z,3.47
2018-08-23T08:53:14.093Z,3.03
2018-08-23T08:55:42.901Z,3.20
2018-08-23T08:58:11.070Z,3.50
2018-08-23T09:00:49.878Z,3.23
2018-08-23T09:03:18.954Z,2.90
2018-08-23T09:05:47.092Z,3.70
2018-08-23T09:08:15.186Z,2.43
2018-08-23T09:10:43.354Z,2.73
2018-08-23T09:13:11.580Z,3.00
2018-08-23T09:15:39.756Z,2.83
2018-08-23T09:18:07.956Z,3.80
2018-08-23T09:20:36.257Z,2.80
2018-08-23T09:23:04.373Z,3.37
2018-08-23T09:25:37.831Z,3.20
2018-08-23T09:28:05.946Z,3.13
2018-08-23T09:30:35.514Z,2.97
2018-08-23T09:33:07.703Z,3.07
2018-08-23T09:35:36.433Z,3.50
2018-08-23T09:38:10.504Z,3.87
2018-08-23T09:40:38.810Z,2.97
2018-08-23T09:43:07.367Z,3.30
2018-08-23T09:45:36.377Z,3.10
2018-08-23T09:48:04.652Z,3.00
2018-08-23T09:50:32.998Z,3.33
2018-08-23T09:53:01.286Z,3.30
2018-08-23T09:55:31.357Z,3.10
2018-08-23T09:57:59.826Z,3.03
2018-08-23T10:02:40.974Z,3.20
2018-08-23T10:05:14.684Z,3.47
2018-08-23T10:07:48.510Z,3.50
2018-08-23T10:10:22.297Z,3.57
2018-08-23T10:12:56.012Z,2.60
2018-08-23T10:15:29.715Z,3.03
2018-08-23T10:18:03.428Z,3.00
2018-08-23T10:21:14.121Z,3.07
2018-08-23T10:23:42.250Z,3.30
2018-08-23T10:26:28.100Z,3.17
2018-08-23T10:28:56.868Z,3.00
2018-08-23T10:31:25.159Z,3.70
2018-08-23T10:33:54.409Z,3.07
2018-08-23T10:36:22.638Z,2.90
2018-08-23T10:38:50.862Z,3.13
2018-08-23T10:41:19.095Z,3.47
2018-08-23T10:43:48.327Z,3.20
2018-08-23T10:46:16.474Z,3.63
2018-08-23T10:48:44.752Z,3.37
2018-08-23T10:51:13.749Z,4.00
2018-08-23T10:53:41.884Z,4.20
2018-08-23T10:56:10.036Z,3.60
2018-08-23T10:58:39.599Z,3.80
2018-08-23T11:01:07.907Z,3.53
2018-08-23T11:03:36.093Z,3.77
2018-08-23T11:06:04.281Z,3.40
2018-08-23T11:08:35.298Z,4.90
2018-08-23T11:11:08.899Z,3.10
2018-08-23T11:13:42.578Z,3.90
2018-08-23T11:16:16.409Z,3.87
2018-08-23T11:18:50.153Z,4.00
2018-08-23T11:21:18.764Z,4.33
2018-08-23T11:23:47.454Z,3.93
2018-08-23T11:26:19.283Z,3.63
2018-08-23T11:28:47.883Z,4.10
2018-08-23T11:31:21.455Z,3.50
2018-08-23T11:33:49.549Z,3.63
2018-08-23T11:36:17.697Z,3.17
2018-08-23T11:38:45.872Z,3.67
2018-08-23T11:41:14.880Z,4.00
2018-08-23T11:43:43.275Z,5.10
2018-08-23T11:46:12.416Z,3.57
2018-08-23T11:48:41.665Z,3.60
2018-08-23T11:51:09.844Z,4.53
2018-08-23T11:53:38.346Z,3.63
2018-08-23T11:56:06.376Z,3.90
2018-08-23T11:58:34.576Z,3.83
2018-08-23T12:01:08.140Z,4.20
2018-08-23T12:03:37.136Z,4.60
2018-08-23T12:06:05.310Z,5.20
2018-08-23T12:08:33.476Z,3.70
2018-08-23T12:11:01.658Z,3.80
2018-08-23T12:13:29.907Z,4.60
2018-08-23T12:15:58.324Z,4.60
2018-08-23T12:18:32.703Z,3.40
2018-08-23T12:21:01.038Z,4.17
2018-08-23T12:23:29.182Z,4.30
2018-08-23T12:25:57.865Z,3.30
2018-08-23T12:28:31.564Z,3.60
2018-08-23T12:30:59.957Z,4.03
2018-08-23T12:33:28.268Z,4.23
2018-08-23T12:35:56.778Z,4.03
2018-08-23T12:38:30.209Z,3.83
2018-08-23T12:41:03.721Z,4.37
2018-08-23T12:43:42.428Z,4.53
2018-08-23T12:46:11.596Z,4.70
2018-08-23T12:48:39.984Z,4.40
2018-08-23T12:51:08.315Z,5.03
2018-08-23T12:53:36.648Z,5.10
2018-08-23T12:56:04.907Z,4.53
2018-08-23T12:58:33.136Z,4.70
2018-08-23T13:01:02.537Z,7.07
2018-08-23T13:03:30.732Z,4.80
2018-08-23T13:05:58.878Z,4.60
2018-08-23T13:08:27.036Z,4.30
2018-08-23T13:10:55.241Z,4.70
2018-08-23T13:13:23.365Z,4.10
2018-08-23T13:15:52.373Z,5.20
2018-08-23T13:18:20.538Z,4.10
2018-08-23T13:20:48.748Z,3.80
2018-08-23T13:23:16.922Z,4.17
2018-08-23T13:25:50.697Z,3.90
2018-08-23T13:28:19.297Z,4.20
2018-08-23T13:30:47.446Z,4.87
2018-08-23T13:33:15.630Z,4.87
2018-08-23T13:35:43.802Z,5.50
2018-08-23T13:38:11.932Z,5.53
2018-08-23T13:40:40.120Z,6.13
2018-08-23T13:43:08.456Z,6.07
2018-08-23T13:45:36.614Z,6.00
2018-08-23T13:48:05.650Z,5.87
2018-08-23T13:50:34.962Z,6.37
2018-08-23T13:53:03.206Z,6.07
2018-08-23T13:55:31.470Z,6.00
2018-08-23T13:57:59.748Z,5.60
2018-08-23T14:00:33.415Z,6.77
2018-08-23T14:03:01.556Z,7.10
2018-08-23T14:05:29.733Z,8.07
2018-08-23T14:07:57.846Z,8.60
2018-08-23T14:10:25.976Z,7.40
2018-08-23T14:12:54.163Z,7.63
2018-08-23T14:15:27.918Z,7.57
2018-08-23T14:17:56.797Z,6.83
2018-08-23T14:20:26.089Z,7.90
2018-08-23T14:22:54.365Z,8.40
2018-08-23T14:25:22.661Z,7.83
2018-08-23T14:27:51.436Z,8.40
2018-08-23T14:30:19.662Z,8.23
2018-08-23T14:32:47.926Z,7.33
2018-08-23T14:35:16.112Z,9.10
2018-08-23T14:37:44.384Z,9.50
2018-08-23T14:40:12.628Z,8.97
2018-08-23T14:42:40.906Z,9.07
2018-08-23T14:45:09.590Z,7.73
2018-08-23T14:47:43.263Z,8.73
2018-08-23T14:50:11.440Z,9.00
2018-08-23T14:52:39.625Z,10.57
2018-08-23T14:55:07.903Z,8.93
2018-08-23T14:57:37.311Z,9.20
2018-08-23T15:00:05.945Z,7.67
2018-08-23T15:02:34.115Z,7.73
2018-08-23T15:05:02.306Z,6.77
2018-08-23T15:07:30.510Z,6.70
2018-08-23T15:09:58.641Z,6.40
2018-08-23T15:12:26.809Z,6.40
2018-08-23T15:14:54.987Z,5.17
2018-08-23T15:17:24.355Z,4.90
2018-08-23T15:19:52.590Z,5.10
2018-08-23T15:22:20.741Z,5.97
2018-08-23T15:24:48.967Z,4.97
2018-08-23T15:27:17.176Z,4.50
2018-08-23T15:29:45.345Z,4.17
2018-08-23T15:32:13.561Z,4.70
2018-08-23T15:34:41.754Z,3.93
2018-08-23T15:37:10.116Z,4.87
2018-08-23T15:39:40.230Z,3.40
2018-08-23T15:42:08.624Z,5.07
2018-08-23T15:44:36.793Z,3.90
2018-08-23T15:47:05.571Z,3.90
2018-08-23T15:49:33.745Z,4.33
2018-08-23T15:52:01.924Z,4.23
2018-08-23T15:54:30.096Z,4.83
2018-08-23T15:56:58.306Z,5.27
2018-08-23T15:59:26.466Z,4.00
2018-08-23T16:01:55.585Z,3.67
2018-08-23T16:04:23.687Z,3.80
2018-08-23T16:06:51.850Z,3.70
2018-08-23T16:09:20.026Z,3.43
2018-08-23T16:11:48.198Z,4.10
2018-08-23T16:14:16.370Z,3.97
2018-08-23T16:16:49.813Z,3.73
2018-08-23T16:19:24.915Z,3.90
2018-08-23T16:21:57.128Z,3.90
2018-08-23T16:24:26.096Z,4.23
2018-08-23T16:26:59.634Z,3.90
2018-08-23T16:29:27.769Z,3.87
2018-08-23T16:31:56.050Z,3.70
2018-08-23T16:34:24.391Z,3.70
2018-08-23T16:36:52.600Z,3.70
2018-08-23T16:39:20.732Z,4.70
2018-08-23T16:41:48.928Z,3.80
2018-08-23T16:44:17.148Z,4.13
2018-08-23T16:46:45.321Z,3.80
2018-08-23T16:49:13.698Z,3.90
2018-08-23T16:51:41.971Z,4.13
2018-08-23T16:54:10.258Z,3.93
2018-08-23T16:56:38.369Z,4.17
2018-08-23T16:59:06.603Z,3.67
2018-08-23T17:01:34.849Z,4.17
2018-08-23T17:04:03.166Z,3.67
2018-08-23T17:06:31.298Z,3.90
2018-08-23T17:08:59.501Z,3.60
2018-08-23T17:11:27.647Z,4.20
2018-08-23T17:13:55.820Z,3.40
2018-08-23T17:16:29.430Z,3.30
2018-08-23T17:18:57.565Z,3.80
2018-08-23T17:21:25.764Z,3.17
2018-08-23T17:23:54.041Z,3.93
2018-08-23T17:26:22.183Z,3.63
2018-08-23T17:28:50.328Z,3.30
2018-08-23T17:31:18.529Z,3.87
2018-08-23T17:33:46.711Z,3.87
2018-08-23T17:36:16.075Z,3.93
2018-08-23T17:38:44.415Z,3.57
2018-08-23T17:41:12.695Z,3.80
2018-08-23T17:43:40.842Z,4.20
2018-08-23T17:46:09.118Z,3.17
2018-08-23T17:48:37.396Z,3.63
2018-08-23T17:51:05.734Z,4.40
2018-08-23T17:53:34.016Z,4.10
2018-08-23T17:56:02.188Z,4.70
2018-08-23T17:58:30.319Z,5.07
2018-08-23T18:00:58.706Z,4.60
2018-08-23T18:03:26.887Z,5.17
2018-08-23T18:05:55.908Z,5.13
2018-08-23T18:08:24.104Z,6.30
2018-08-23T18:10:52.445Z,5.40
2018-08-23T18:13:20.723Z,4.83
2018-08-23T18:15:54.295Z,6.80
2018-08-23T18:18:22.615Z,5.90
2018-08-23T18:20:50.881Z,7.10
2018-08-23T18:23:19.087Z,6.70
2018-08-23T18:25:47.257Z,7.30
2018-08-23T18:28:15.444Z,6.87
2018-08-23T18:30:45.302Z,5.83
2018-08-23T18:33:14.327Z,5.00
2018-08-23T18:35:42.513Z,5.40
2018-08-23T18:38:11.671Z,3.90
2018-08-23T18:40:41.045Z,3.37
2018-08-23T18:43:10.724Z,4.60
2018-08-23T18:45:38.855Z,3.80
2018-08-23T18:48:06.984Z,3.40
2018-08-23T18:50:35.309Z,3.63
2018-08-23T18:53:04.577Z,3.80
2018-08-23T18:55:32.753Z,3.60
2018-08-23T18:58:01.375Z,3.50
2018-08-23T19:00:29.685Z,4.00
2018-08-23T19:02:57.857Z,3.80
2018-08-23T19:05:26.028Z,4.10
2018-08-23T19:07:54.415Z,4.60
2018-08-23T19:10:22.615Z,4.63
2018-08-23T19:12:50.827Z,4.30
2018-08-23T19:15:24.671Z,4.57
2018-08-23T19:17:52.829Z,4.53
2018-08-23T19:20:21.007Z,5.70
2018-08-23T19:22:49.321Z,4.73
2018-08-23T19:25:17.750Z,4.70
2018-08-23T19:27:45.869Z,5.40
2018-08-23T19:30:14.559Z,5.17
2018-08-23T19:32:42.838Z,5.17
2018-08-23T19:35:10.979Z,5.07
2018-08-23T19:37:39.629Z,5.00
2018-08-23T19:40:08.747Z,5.20
2018-08-23T19:42:36.930Z,5.20
2018-08-23T19:45:08.507Z,8.83
2018-08-23T19:47:42.803Z,5.90
2018-08-23T19:50:12.680Z,5.00
2018-08-23T19:52:40.787Z,5.43
2018-08-23T19:55:09.648Z,5.67
2018-08-23T19:57:38.145Z,5.37
2018-08-23T20:00:07.602Z,4.90
2018-08-23T20:02:35.820Z,5.50
2018-08-23T20:05:04.366Z,4.90
2018-08-23T20:07:32.507Z,5.40
2018-08-23T20:10:01.142Z,5.20
2018-08-23T20:12:29.411Z,5.70
2018-08-23T20:14:57.465Z,5.33
2018-08-23T20:17:25.707Z,5.60
2018-08-23T20:19:55.067Z,5.47
2018-08-23T20:22:24.189Z,6.47
2018-08-23T20:24:53.896Z,5.53
2018-08-23T20:27:22.144Z,5.53
2018-08-23T20:29:50.945Z,5.80
2018-08-23T20:32:20.565Z,7.00
2018-08-23T20:34:50.110Z,6.30
2018-08-23T20:37:18.290Z,6.90
2018-08-23T20:39:46.411Z,6.00
2018-08-23T20:42:15.711Z,6.97
2018-08-23T20:44:43.819Z,7.13
2018-08-23T20:47:12.016Z,8.10
2018-08-23T20:49:40.177Z,7.23
2018-08-23T20:52:09.625Z,6.57
2018-08-23T20:54:37.738Z,7.70
2018-08-23T20:57:05.991Z,6.77
2018-08-23T20:59:34.484Z,6.07
2018-08-23T21:02:02.627Z,6.33
2018-08-23T21:04:30.795Z,6.17
2018-08-23T21:06:59.070Z,7.40
2018-08-23T21:09:27.275Z,9.33
2018-08-23T21:11:55.448Z,10.97
2018-08-23T21:14:23.691Z,8.57
2018-08-23T21:16:52.147Z,8.20
2018-08-23T21:19:20.297Z,9.30
2018-08-23T21:21:48.484Z,9.40
2018-08-23T21:24:17.708Z,9.20
2018-08-23T21:26:45.869Z,10.13
2018-08-23T21:29:14.212Z,8.40
2018-08-23T21:31:42.393Z,6.80
2018-08-23T21:34:10.813Z,8.03
2018-08-23T21:36:38.984Z,7.07
2018-08-23T21:39:10.452Z,6.73
2018-08-23T21:41:38.586Z,7.57
2018-08-23T21:44:06.746Z,9.83
2018-08-23T21:46:35.576Z,6.47
2018-08-23T21:49:04.563Z,9.00
2018-08-23T21:51:32.695Z,7.60
2018-08-23T21:54:00.895Z,6.87
2018-08-23T21:56:29.022Z,8.23
2018-08-23T21:58:57.788Z,7.40
2018-08-23T22:01:26.939Z,8.33
2018-08-23T22:03:55.065Z,6.83
2018-08-23T22:06:23.703Z,6.93
2018-08-23T22:08:51.987Z,7.40
2018-08-23T22:11:20.220Z,10.20
2018-08-23T22:13:48.340Z,5.83
2018-08-23T22:16:16.612Z,6.80
2018-08-23T22:18:44.738Z,6.03
2018-08-23T22:21:12.846Z,7.10
2018-08-23T22:23:41.611Z,6.80
2018-08-23T22:26:09.753Z,6.80
2018-08-23T22:28:38.061Z,7.10
2018-08-23T22:31:06.152Z,8.00
2018-08-23T22:33:35.461Z,7.40
2018-08-23T22:36:03.677Z,7.43
2018-08-23T22:38:32.036Z,8.97
2018-08-23T22:41:00.241Z,7.83
2018-08-23T22:43:28.434Z,8.73
2018-08-23T22:45:56.659Z,8.80
2018-08-23T22:48:26.129Z,9.43
2018-08-23T22:50:55.467Z,9.33
2018-08-23T22:53:23.681Z,8.27
2018-08-23T22:55:52.536Z,9.07
2018-08-23T22:58:20.802Z,9.80
2018-08-23T23:00:49.058Z,8.73
2018-08-23T23:03:22.556Z,8.70
2018-08-23T23:05:50.846Z,8.00
2018-08-23T23:08:18.988Z,8.10
2018-08-23T23:10:48.105Z,7.30
2018-08-23T23:13:16.204Z,8.30
2018-08-23T23:15:44.478Z,7.50
2018-08-23T23:18:14.580Z,7.87
2018-08-23T23:20:42.920Z,8.27
2018-08-23T23:23:11.143Z,7.70
2018-08-23T23:25:39.342Z,8.20
2018-08-23T23:28:07.502Z,7.67
2018-08-23T23:30:36.102Z,7.70
2018-08-23T23:33:04.266Z,12.17
2018-08-23T23:35:32.374Z,14.50
2018-08-23T23:38:01.909Z,18.90
2018-08-23T23:40:30.045Z,41.00
2018-08-23T23:42:58.166Z,38.50
2018-08-23T23:45:26.330Z,47.50
2018-08-23T23:47:54.638Z,47.77
2018-08-23T23:50:23.058Z,47.57
2018-08-23T23:52:51.182Z,45.90
2018-08-23T23:55:19.350Z,45.87
2018-08-23T23:57:47.526Z,43.17
